Flight Track Log - Related Links

Times and Time Zones

All times are in EDT time to prevent confusion due to time zone crossing. See the N508QS flight status page for this flight to view local times or setup timezone preferences in your user account.

Time Position Orientation Groundspeed Altitude Reporting Facility
EDT Latitude Longitude Course Direction KTS MPH feet Rate Location/Type
Sat 06:21:08 PM 34.2247 -78.0056 268° West 206 237 4,800  Level Washington Center
Sat 06:22:57 PM 34.2275 -78.1586 271° West 243 280 9,700 2,556 Climbing Jacksonville Center
Sat 06:23:57 PM 34.2267 -78.2542 269° West 264 304 12,000 2,400 Climbing Jacksonville Center
Sat 06:24:57 PM 34.2286 -78.3619 271° West 300 345 14,500 1,950 Climbing Jacksonville Center
Sat 06:25:00 PM 34.2481 -78.8511 268° West  Level FlightAware Approximate
Sat 06:25:57 PM 34.2306 -78.4750 271° West 322 371 15,900  Level Jacksonville Center
Sat 06:26:00 PM 34.2452 -78.9569 268° West  Level FlightAware Approximate
Sat 06:26:57 PM 34.2303 -78.5853 270° West 335 386 15,900  Level Jacksonville Center
Sat 06:27:57 PM 34.2300 -78.7008 270° West 335 386 15,900  Level Jacksonville Center
Sat 06:28:57 PM 34.2294 -78.8114 270° West 340 391 15,900  Level Jacksonville Center
Sat 06:29:57 PM 34.2308 -78.9244 271° West 345 397 15,900  Level Jacksonville Center
Sat 06:30:57 PM 34.2322 -79.0372 271° West 345 397 15,900  Level Jacksonville Center
Sat 06:31:57 PM 34.2336 -79.1528 271° West 345 397 15,900  Level Jacksonville Center
Sat 06:32:57 PM 34.2700 -79.2542 293° West 345 397 15,900  Level Jacksonville Center
Sat 06:33:57 PM 34.3106 -79.3556 296° West 338 389 15,900 50 Level Jacksonville Center
Sat 06:34:57 PM 34.3531 -79.4569 297° West 338 389 16,000 50 Climbing Jacksonville Center
Sat 06:35:57 PM 34.3911 -79.5586 294° West 333 383 16,000  Level Jacksonville Center
Sat 06:36:57 PM 34.4333 -79.6578 297° West 333 383 16,000 -50 Level Jacksonville Center
Sat 06:37:57 PM 34.4733 -79.7569 296° West 338 389 15,900 -50 Descending Jacksonville Center
Sat 06:38:57 PM 34.5133 -79.8564 296° West 338 389 15,900 50 Level Jacksonville Center
Sat 06:39:57 PM 34.5511 -79.9558 295° West 333 383 16,000 -887 Climbing Jacksonville Center
Sat 06:42:20 PM 34.6464 -80.2036 295° West 302 348 12,900 -1,265 Descending Atlanta Center
Sat 06:43:21 PM 34.6800 -80.2828 297° West 253 291 11,700 -934 Descending Atlanta Center
Sat 06:44:22 PM 34.7158 -80.3569 300° West 254 292 11,000 -344 Descending Atlanta Center
Sat 06:45:23 PM 34.7636 -80.4206 312° West 259 298 11,000  Level Atlanta Center
Sat 06:46:23 PM 34.8178 -80.4892 314° West 254 292 11,000  Level Atlanta Center
Sat 06:47:24 PM 34.8653 -80.5453 316° Northwest 251 289 11,000  Level Atlanta Center
Sat 06:48:25 PM 34.9172 -80.6089 315° West 253 291 11,000  Level Atlanta Center
Sat 06:49:26 PM 34.9628 -80.6706 312° West 250 288 11,000  Level Atlanta Center
Sat 06:50:27 PM 35.0103 -80.7319 313° West 249 287 11,000 -689 Level Atlanta Center
Sat 06:51:28 PM 35.0619 -80.7933 316° Northwest 244 281 9,600 -984 Descending Atlanta Center
Sat 06:52:29 PM 35.1250 -80.8164 343° North 252 290 9,000 -492 Descending Atlanta Center
Sat 06:53:30 PM 35.1900 -80.8189 358° North 219 252 8,600 -793 Descending Atlanta Center
Sat 06:54:30 PM 35.2344 -80.7661 44° Northeast 219 252 7,400 -1,180 Descending Atlanta Center
Sat 06:55:32 PM 35.2767 -80.7086 48° Northeast 210 242 6,200 -1,230 Descending Atlanta Center
Sat 06:56:32 PM 35.3200 -80.6889 20° North 193 222 4,900 -1,091 Descending Atlanta Center
Sat 06:57:33 PM 35.3503 -80.7336 310° West 166 191 4,000 -541 Descending Atlanta Center
Sat 06:58:34 PM 35.3289 -80.7853 243° Southwest 170 196 3,800 -541 Descending Atlanta Center
Sat 06:59:35 PM 35.2986 -80.8297 230° Southwest 170 196 2,900 -885 Descending Atlanta Center
Sat 07:00:36 PM 35.2644 -80.8744 227° Southwest 165 190 2,000 -738 Descending Atlanta Center
Sat 07:01:37 PM 35.2442 -80.9031 229° Southwest 108 124 1,400 -590 Descending Atlanta Center
Sat 07:03:00 PM 35.2000 -80.9333 180° South  Level FlightAware Approximate
Sat 07:10:00 PM 35.2137 -80.9491 180° South  Level Estimated
Sat 07:11:00 PM 35.2137 -80.9491 180° South  Level Estimated

Login

Don't have an account? Register now (free) for customized features, flight alerts, and more!